sensor_id;sensor_type;location;lat;lon;timestamp;P1;durP1;ratioP1;P2;durP2;ratioP2
4630;SDS011;2328;48.170;11.602;2023-05-13T00:00:59;4.07;;;3.27;;
4630;SDS011;2328;48.170;11.602;2023-05-13T00:03:27;4.77;;;3.40;;
4630;SDS011;2328;48.170;11.602;2023-05-13T00:05:56;6.57;;;3.60;;
4630;SDS011;2328;48.170;11.602;2023-05-13T00:08:26;4.67;;;3.93;;
4630;SDS011;2328;48.170;11.602;2023-05-13T00:10:55;6.53;;;4.20;;
4630;SDS011;2328;48.170;11.602;2023-05-13T00:13:25;3.80;;;3.40;;
4630;SDS011;2328;48.170;11.602;2023-05-13T00:15:53;3.90;;;3.13;;
4630;SDS011;2328;48.170;11.602;2023-05-13T00:18:22;5.57;;;3.83;;
4630;SDS011;2328;48.170;11.602;2023-05-13T00:20:50;4.93;;;3.83;;
4630;SDS011;2328;48.170;11.602;2023-05-13T00:23:19;6.83;;;4.67;;
4630;SDS011;2328;48.170;11.602;2023-05-13T00:25:49;5.07;;;3.00;;
4630;SDS011;2328;48.170;11.602;2023-05-13T00:28:18;6.13;;;3.70;;
4630;SDS011;2328;48.170;11.602;2023-05-13T00:30:46;9.33;;;4.23;;
4630;SDS011;2328;48.170;11.602;2023-05-13T00:33:15;7.23;;;4.57;;
4630;SDS011;2328;48.170;11.602;2023-05-13T00:35:44;6.80;;;4.10;;
4630;SDS011;2328;48.170;11.602;2023-05-13T00:38:13;8.77;;;5.10;;
4630;SDS011;2328;48.170;11.602;2023-05-13T00:40:43;6.17;;;4.73;;
4630;SDS011;2328;48.170;11.602;2023-05-13T00:43:13;5.00;;;3.73;;
4630;SDS011;2328;48.170;11.602;2023-05-13T00:45:41;7.27;;;4.50;;
4630;SDS011;2328;48.170;11.602;2023-05-13T00:48:10;4.40;;;3.77;;
4630;SDS011;2328;48.170;11.602;2023-05-13T00:50:39;7.30;;;4.70;;
4630;SDS011;2328;48.170;11.602;2023-05-13T00:53:10;7.33;;;5.07;;
4630;SDS011;2328;48.170;11.602;2023-05-13T00:55:40;5.43;;;3.97;;
4630;SDS011;2328;48.170;11.602;2023-05-13T00:58:09;8.47;;;4.70;;
4630;SDS011;2328;48.170;11.602;2023-05-13T01:00:40;14.03;;;6.37;;
4630;SDS011;2328;48.170;11.602;2023-05-13T01:03:11;9.07;;;5.10;;
4630;SDS011;2328;48.170;11.602;2023-05-13T01:05:42;6.73;;;4.60;;
4630;SDS011;2328;48.170;11.602;2023-05-13T01:08:14;8.23;;;4.90;;
4630;SDS011;2328;48.170;11.602;2023-05-13T01:10:45;6.90;;;4.70;;
4630;SDS011;2328;48.170;11.602;2023-05-13T01:13:16;7.47;;;4.90;;
4630;SDS011;2328;48.170;11.602;2023-05-13T01:15:48;18.37;;;6.07;;
4630;SDS011;2328;48.170;11.602;2023-05-13T01:18:18;7.87;;;4.80;;
4630;SDS011;2328;48.170;11.602;2023-05-13T01:20:47;10.83;;;6.10;;
4630;SDS011;2328;48.170;11.602;2023-05-13T01:23:17;8.67;;;5.10;;
4630;SDS011;2328;48.170;11.602;2023-05-13T01:25:46;9.50;;;5.20;;
4630;SDS011;2328;48.170;11.602;2023-05-13T01:28:15;7.93;;;5.27;;
4630;SDS011;2328;48.170;11.602;2023-05-13T01:30:44;7.73;;;5.50;;
4630;SDS011;2328;48.170;11.602;2023-05-13T01:33:13;8.47;;;5.90;;
4630;SDS011;2328;48.170;11.602;2023-05-13T01:35:42;13.33;;;6.37;;
4630;SDS011;2328;48.170;11.602;2023-05-13T01:38:12;9.50;;;5.63;;
4630;SDS011;2328;48.170;11.602;2023-05-13T01:40:42;9.10;;;6.10;;
4630;SDS011;2328;48.170;11.602;2023-05-13T01:43:11;9.17;;;6.10;;
4630;SDS011;2328;48.170;11.602;2023-05-13T01:45:40;11.93;;;6.10;;
4630;SDS011;2328;48.170;11.602;2023-05-13T01:48:09;11.60;;;6.27;;
4630;SDS011;2328;48.170;11.602;2023-05-13T01:50:37;12.73;;;6.20;;
4630;SDS011;2328;48.170;11.602;2023-05-13T01:53:06;14.17;;;7.20;;
4630;SDS011;2328;48.170;11.602;2023-05-13T01:55:34;13.00;;;6.73;;
4630;SDS011;2328;48.170;11.602;2023-05-13T01:58:05;9.17;;;6.13;;
4630;SDS011;2328;48.170;11.602;2023-05-13T02:00:33;16.90;;;6.80;;
4630;SDS011;2328;48.170;11.602;2023-05-13T02:03:02;9.60;;;6.40;;
4630;SDS011;2328;48.170;11.602;2023-05-13T02:05:37;16.00;;;7.17;;
4630;SDS011;2328;48.170;11.602;2023-05-13T02:08:06;13.83;;;7.27;;
4630;SDS011;2328;48.170;11.602;2023-05-13T02:10:35;12.20;;;6.20;;
4630;SDS011;2328;48.170;11.602;2023-05-13T02:13:04;11.47;;;6.20;;
4630;SDS011;2328;48.170;11.602;2023-05-13T02:15:33;12.53;;;6.47;;
4630;SDS011;2328;48.170;11.602;2023-05-13T02:18:02;11.03;;;6.60;;
4630;SDS011;2328;48.170;11.602;2023-05-13T02:20:30;11.93;;;6.50;;
4630;SDS011;2328;48.170;11.602;2023-05-13T02:22:59;11.80;;;5.70;;
4630;SDS011;2328;48.170;11.602;2023-05-13T02:25:28;9.17;;;6.20;;
4630;SDS011;2328;48.170;11.602;2023-05-13T02:27:56;13.20;;;7.90;;
4630;SDS011;2328;48.170;11.602;2023-05-13T02:30:26;11.77;;;6.50;;
4630;SDS011;2328;48.170;11.602;2023-05-13T02:32:56;12.50;;;7.03;;
4630;SDS011;2328;48.170;11.602;2023-05-13T02:35:25;10.53;;;6.73;;
4630;SDS011;2328;48.170;11.602;2023-05-13T02:37:55;13.53;;;7.43;;
4630;SDS011;2328;48.170;11.602;2023-05-13T02:40:23;12.60;;;7.30;;
4630;SDS011;2328;48.170;11.602;2023-05-13T02:42:52;10.43;;;6.87;;
4630;SDS011;2328;48.170;11.602;2023-05-13T02:45:20;14.07;;;5.77;;
4630;SDS011;2328;48.170;11.602;2023-05-13T02:47:50;12.23;;;7.00;;
4630;SDS011;2328;48.170;11.602;2023-05-13T02:50:19;12.53;;;6.50;;
4630;SDS011;2328;48.170;11.602;2023-05-13T02:52:48;13.77;;;6.83;;
4630;SDS011;2328;48.170;11.602;2023-05-13T02:55:17;14.00;;;6.47;;
4630;SDS011;2328;48.170;11.602;2023-05-13T02:57:45;16.10;;;7.23;;
4630;SDS011;2328;48.170;11.602;2023-05-13T03:00:14;11.70;;;6.67;;
4630;SDS011;2328;48.170;11.602;2023-05-13T03:02:43;18.40;;;6.10;;
4630;SDS011;2328;48.170;11.602;2023-05-13T03:05:12;12.10;;;6.63;;
4630;SDS011;2328;48.170;11.602;2023-05-13T03:07:41;11.77;;;5.90;;
4630;SDS011;2328;48.170;11.602;2023-05-13T03:10:09;13.50;;;6.27;;
4630;SDS011;2328;48.170;11.602;2023-05-13T03:12:38;14.37;;;7.20;;
4630;SDS011;2328;48.170;11.602;2023-05-13T03:15:09;12.33;;;6.70;;
4630;SDS011;2328;48.170;11.602;2023-05-13T03:17:37;14.03;;;6.87;;
4630;SDS011;2328;48.170;11.602;2023-05-13T03:20:06;12.50;;;7.27;;
4630;SDS011;2328;48.170;11.602;2023-05-13T03:22:36;12.10;;;6.20;;
4630;SDS011;2328;48.170;11.602;2023-05-13T03:25:05;10.70;;;6.33;;
4630;SDS011;2328;48.170;11.602;2023-05-13T03:27:33;14.33;;;7.10;;
4630;SDS011;2328;48.170;11.602;2023-05-13T03:30:02;11.97;;;6.53;;
4630;SDS011;2328;48.170;11.602;2023-05-13T03:32:31;20.40;;;6.90;;
4630;SDS011;2328;48.170;11.602;2023-05-13T03:34:59;14.43;;;6.80;;
4630;SDS011;2328;48.170;11.602;2023-05-13T03:37:28;14.70;;;6.37;;
4630;SDS011;2328;48.170;11.602;2023-05-13T03:39:58;17.23;;;8.10;;
4630;SDS011;2328;48.170;11.602;2023-05-13T03:42:26;11.57;;;6.73;;
4630;SDS011;2328;48.170;11.602;2023-05-13T03:44:56;11.03;;;6.80;;
4630;SDS011;2328;48.170;11.602;2023-05-13T03:47:24;12.17;;;7.37;;
4630;SDS011;2328;48.170;11.602;2023-05-13T03:49:53;13.10;;;6.77;;
4630;SDS011;2328;48.170;11.602;2023-05-13T03:52:21;15.00;;;8.13;;
4630;SDS011;2328;48.170;11.602;2023-05-13T03:54:50;14.00;;;7.97;;
4630;SDS011;2328;48.170;11.602;2023-05-13T03:57:20;14.63;;;7.27;;
4630;SDS011;2328;48.170;11.602;2023-05-13T03:59:49;15.23;;;7.87;;
4630;SDS011;2328;48.170;11.602;2023-05-13T04:02:17;12.07;;;7.27;;
4630;SDS011;2328;48.170;11.602;2023-05-13T04:04:53;12.33;;;7.13;;
4630;SDS011;2328;48.170;11.602;2023-05-13T04:07:21;17.43;;;7.20;;
4630;SDS011;2328;48.170;11.602;2023-05-13T04:09:50;14.07;;;7.43;;
4630;SDS011;2328;48.170;11.602;2023-05-13T04:12:18;11.60;;;6.93;;
4630;SDS011;2328;48.170;11.602;2023-05-13T04:14:48;13.07;;;8.37;;
4630;SDS011;2328;48.170;11.602;2023-05-13T04:17:16;10.20;;;6.00;;
4630;SDS011;2328;48.170;11.602;2023-05-13T04:19:45;18.23;;;8.40;;
4630;SDS011;2328;48.170;11.602;2023-05-13T04:22:13;15.40;;;7.50;;
4630;SDS011;2328;48.170;11.602;2023-05-13T04:24:42;12.20;;;7.57;;
4630;SDS011;2328;48.170;11.602;2023-05-13T04:27:10;13.17;;;8.17;;
4630;SDS011;2328;48.170;11.602;2023-05-13T04:29:38;15.80;;;7.50;;
4630;SDS011;2328;48.170;11.602;2023-05-13T04:32:08;17.40;;;8.87;;
4630;SDS011;2328;48.170;11.602;2023-05-13T04:34:37;14.97;;;9.40;;
4630;SDS011;2328;48.170;11.602;2023-05-13T04:37:05;13.93;;;7.70;;
4630;SDS011;2328;48.170;11.602;2023-05-13T04:39:34;14.40;;;6.77;;
4630;SDS011;2328;48.170;11.602;2023-05-13T04:42:02;14.47;;;8.17;;
4630;SDS011;2328;48.170;11.602;2023-05-13T04:44:31;14.23;;;7.53;;
4630;SDS011;2328;48.170;11.602;2023-05-13T04:47:00;17.50;;;8.47;;
4630;SDS011;2328;48.170;11.602;2023-05-13T04:49:30;18.07;;;8.37;;
4630;SDS011;2328;48.170;11.602;2023-05-13T04:52:00;14.20;;;8.20;;
4630;SDS011;2328;48.170;11.602;2023-05-13T04:54:28;23.00;;;8.53;;
4630;SDS011;2328;48.170;11.602;2023-05-13T04:56:56;14.57;;;7.60;;
4630;SDS011;2328;48.170;11.602;2023-05-13T04:59:25;11.13;;;6.87;;
4630;SDS011;2328;48.170;11.602;2023-05-13T05:01:53;17.17;;;8.60;;
4630;SDS011;2328;48.170;11.602;2023-05-13T05:07:07;16.27;;;8.30;;
4630;SDS011;2328;48.170;11.602;2023-05-13T05:09:36;16.40;;;9.70;;
4630;SDS011;2328;48.170;11.602;2023-05-13T05:12:05;16.13;;;8.37;;
4630;SDS011;2328;48.170;11.602;2023-05-13T05:14:34;17.90;;;9.40;;
4630;SDS011;2328;48.170;11.602;2023-05-13T05:17:03;15.73;;;7.47;;
4630;SDS011;2328;48.170;11.602;2023-05-13T05:19:32;16.87;;;9.10;;
4630;SDS011;2328;48.170;11.602;2023-05-13T05:22:00;11.80;;;6.87;;
4630;SDS011;2328;48.170;11.602;2023-05-13T05:24:30;14.80;;;7.77;;
4630;SDS011;2328;48.170;11.602;2023-05-13T05:26:58;14.23;;;7.33;;
4630;SDS011;2328;48.170;11.602;2023-05-13T05:29:27;16.33;;;8.30;;
4630;SDS011;2328;48.170;11.602;2023-05-13T05:31:55;13.37;;;7.00;;
4630;SDS011;2328;48.170;11.602;2023-05-13T05:34:24;14.03;;;7.90;;
4630;SDS011;2328;48.170;11.602;2023-05-13T05:37:08;14.77;;;8.10;;
4630;SDS011;2328;48.170;11.602;2023-05-13T05:39:39;14.00;;;7.10;;
4630;SDS011;2328;48.170;11.602;2023-05-13T05:42:07;12.33;;;6.50;;
4630;SDS011;2328;48.170;11.602;2023-05-13T05:44:36;10.43;;;6.20;;
4630;SDS011;2328;48.170;11.602;2023-05-13T05:47:04;12.20;;;5.37;;
4630;SDS011;2328;48.170;11.602;2023-05-13T05:49:33;10.10;;;5.47;;
4630;SDS011;2328;48.170;11.602;2023-05-13T05:52:01;10.10;;;6.43;;
4630;SDS011;2328;48.170;11.602;2023-05-13T05:54:30;10.30;;;6.60;;
4630;SDS011;2328;48.170;11.602;2023-05-13T05:57:00;9.50;;;4.67;;
4630;SDS011;2328;48.170;11.602;2023-05-13T05:59:28;14.13;;;6.90;;
4630;SDS011;2328;48.170;11.602;2023-05-13T06:01:59;14.23;;;6.57;;
4630;SDS011;2328;48.170;11.602;2023-05-13T06:04:28;7.40;;;5.20;;
4630;SDS011;2328;48.170;11.602;2023-05-13T06:06:56;11.80;;;6.00;;
4630;SDS011;2328;48.170;11.602;2023-05-13T06:09:25;8.23;;;5.60;;
4630;SDS011;2328;48.170;11.602;2023-05-13T06:11:53;12.33;;;5.47;;
4630;SDS011;2328;48.170;11.602;2023-05-13T06:14:23;13.03;;;5.87;;
4630;SDS011;2328;48.170;11.602;2023-05-13T06:16:51;7.20;;;4.47;;
4630;SDS011;2328;48.170;11.602;2023-05-13T06:19:21;10.57;;;5.10;;
4630;SDS011;2328;48.170;11.602;2023-05-13T06:21:49;8.03;;;4.87;;
4630;SDS011;2328;48.170;11.602;2023-05-13T06:24:18;7.40;;;5.27;;
4630;SDS011;2328;48.170;11.602;2023-05-13T06:26:46;10.43;;;5.70;;
4630;SDS011;2328;48.170;11.602;2023-05-13T06:29:16;18.20;;;7.10;;
4630;SDS011;2328;48.170;11.602;2023-05-13T06:31:46;9.80;;;5.47;;
4630;SDS011;2328;48.170;11.602;2023-05-13T06:34:14;13.10;;;6.50;;
4630;SDS011;2328;48.170;11.602;2023-05-13T06:36:43;11.27;;;5.20;;
4630;SDS011;2328;48.170;11.602;2023-05-13T06:39:11;17.53;;;5.57;;
4630;SDS011;2328;48.170;11.602;2023-05-13T06:41:40;12.77;;;5.00;;
4630;SDS011;2328;48.170;11.602;2023-05-13T06:44:09;8.57;;;5.40;;
4630;SDS011;2328;48.170;11.602;2023-05-13T06:46:37;10.03;;;5.23;;
4630;SDS011;2328;48.170;11.602;2023-05-13T06:49:07;11.77;;;6.70;;
4630;SDS011;2328;48.170;11.602;2023-05-13T06:51:36;9.20;;;4.80;;
4630;SDS011;2328;48.170;11.602;2023-05-13T06:54:04;10.43;;;5.97;;
4630;SDS011;2328;48.170;11.602;2023-05-13T06:56:34;10.27;;;5.30;;
4630;SDS011;2328;48.170;11.602;2023-05-13T06:59:04;10.37;;;6.23;;
4630;SDS011;2328;48.170;11.602;2023-05-13T07:01:33;12.23;;;5.23;;
4630;SDS011;2328;48.170;11.602;2023-05-13T07:04:11;12.20;;;6.80;;
4630;SDS011;2328;48.170;11.602;2023-05-13T07:06:39;10.80;;;5.50;;
4630;SDS011;2328;48.170;11.602;2023-05-13T07:09:07;12.77;;;6.77;;
4630;SDS011;2328;48.170;11.602;2023-05-13T07:11:36;12.37;;;6.30;;
4630;SDS011;2328;48.170;11.602;2023-05-13T07:14:05;11.67;;;5.93;;
4630;SDS011;2328;48.170;11.602;2023-05-13T07:16:33;11.77;;;6.50;;
4630;SDS011;2328;48.170;11.602;2023-05-13T07:19:02;15.00;;;7.70;;
4630;SDS011;2328;48.170;11.602;2023-05-13T07:21:32;11.30;;;6.60;;
4630;SDS011;2328;48.170;11.602;2023-05-13T07:24:01;13.50;;;7.07;;
4630;SDS011;2328;48.170;11.602;2023-05-13T07:26:30;11.07;;;6.37;;
4630;SDS011;2328;48.170;11.602;2023-05-13T07:28:59;13.30;;;7.07;;
4630;SDS011;2328;48.170;11.602;2023-05-13T07:31:28;11.73;;;5.70;;
4630;SDS011;2328;48.170;11.602;2023-05-13T07:33:57;14.17;;;8.03;;
4630;SDS011;2328;48.170;11.602;2023-05-13T07:36:27;12.20;;;6.63;;
4630;SDS011;2328;48.170;11.602;2023-05-13T07:38:57;12.70;;;6.07;;
4630;SDS011;2328;48.170;11.602;2023-05-13T07:41:29;11.07;;;6.37;;
4630;SDS011;2328;48.170;11.602;2023-05-13T07:43:58;11.97;;;7.10;;
4630;SDS011;2328;48.170;11.602;2023-05-13T07:46:32;13.63;;;6.73;;
4630;SDS011;2328;48.170;11.602;2023-05-13T07:49:01;11.07;;;6.10;;
4630;SDS011;2328;48.170;11.602;2023-05-13T07:51:34;10.90;;;5.77;;
4630;SDS011;2328;48.170;11.602;2023-05-13T07:54:04;8.40;;;5.63;;
4630;SDS011;2328;48.170;11.602;2023-05-13T07:56:34;9.50;;;5.63;;
4630;SDS011;2328;48.170;11.602;2023-05-13T07:59:16;13.23;;;6.83;;
4630;SDS011;2328;48.170;11.602;2023-05-13T08:01:45;10.00;;;5.70;;
4630;SDS011;2328;48.170;11.602;2023-05-13T08:04:13;12.47;;;6.77;;
4630;SDS011;2328;48.170;11.602;2023-05-13T08:06:42;10.57;;;6.10;;
4630;SDS011;2328;48.170;11.602;2023-05-13T08:09:11;10.43;;;5.53;;
4630;SDS011;2328;48.170;11.602;2023-05-13T08:11:45;9.57;;;4.90;;
4630;SDS011;2328;48.170;11.602;2023-05-13T08:14:14;8.37;;;4.87;;
4630;SDS011;2328;48.170;11.602;2023-05-13T08:16:42;8.70;;;5.97;;
4630;SDS011;2328;48.170;11.602;2023-05-13T08:19:12;8.87;;;6.27;;
4630;SDS011;2328;48.170;11.602;2023-05-13T08:21:43;14.17;;;7.07;;
4630;SDS011;2328;48.170;11.602;2023-05-13T08:24:12;14.60;;;7.17;;
4630;SDS011;2328;48.170;11.602;2023-05-13T08:26:41;12.77;;;6.83;;
4630;SDS011;2328;48.170;11.602;2023-05-13T08:29:09;13.10;;;6.90;;
4630;SDS011;2328;48.170;11.602;2023-05-13T08:31:44;9.83;;;5.77;;
4630;SDS011;2328;48.170;11.602;2023-05-13T08:34:14;8.73;;;5.57;;
4630;SDS011;2328;48.170;11.602;2023-05-13T08:36:43;13.13;;;6.10;;
4630;SDS011;2328;48.170;11.602;2023-05-13T08:39:21;11.60;;;5.90;;
4630;SDS011;2328;48.170;11.602;2023-05-13T08:41:49;12.47;;;5.70;;
4630;SDS011;2328;48.170;11.602;2023-05-13T08:44:18;10.00;;;4.87;;
4630;SDS011;2328;48.170;11.602;2023-05-13T08:46:57;9.10;;;4.93;;
4630;SDS011;2328;48.170;11.602;2023-05-13T08:49:27;7.60;;;4.40;;
4630;SDS011;2328;48.170;11.602;2023-05-13T08:51:56;7.53;;;4.47;;
4630;SDS011;2328;48.170;11.602;2023-05-13T08:54:28;8.30;;;5.17;;
4630;SDS011;2328;48.170;11.602;2023-05-13T08:56:58;9.23;;;5.47;;
4630;SDS011;2328;48.170;11.602;2023-05-13T08:59:26;10.70;;;6.67;;
4630;SDS011;2328;48.170;11.602;2023-05-13T09:01:55;14.17;;;5.77;;
4630;SDS011;2328;48.170;11.602;2023-05-13T09:04:25;12.07;;;5.53;;
4630;SDS011;2328;48.170;11.602;2023-05-13T09:06:56;12.47;;;7.30;;
4630;SDS011;2328;48.170;11.602;2023-05-13T09:09:26;13.37;;;6.00;;
4630;SDS011;2328;48.170;11.602;2023-05-13T09:11:55;10.33;;;5.63;;
4630;SDS011;2328;48.170;11.602;2023-05-13T09:14:26;12.30;;;6.87;;
4630;SDS011;2328;48.170;11.602;2023-05-13T09:16:55;11.70;;;7.10;;
4630;SDS011;2328;48.170;11.602;2023-05-13T09:19:25;10.60;;;6.03;;
4630;SDS011;2328;48.170;11.602;2023-05-13T09:21:55;9.50;;;4.90;;
4630;SDS011;2328;48.170;11.602;2023-05-13T09:24:32;11.60;;;6.20;;
4630;SDS011;2328;48.170;11.602;2023-05-13T09:27:00;13.60;;;7.23;;
4630;SDS011;2328;48.170;11.602;2023-05-13T09:29:29;11.20;;;6.23;;
4630;SDS011;2328;48.170;11.602;2023-05-13T09:32:05;8.63;;;5.20;;
4630;SDS011;2328;48.170;11.602;2023-05-13T09:34:33;7.97;;;5.30;;
4630;SDS011;2328;48.170;11.602;2023-05-13T09:39:49;8.97;;;5.20;;
4630;SDS011;2328;48.170;11.602;2023-05-13T09:42:20;9.90;;;5.00;;
4630;SDS011;2328;48.170;11.602;2023-05-13T09:44:48;10.63;;;5.17;;
4630;SDS011;2328;48.170;11.602;2023-05-13T09:47:17;6.83;;;4.60;;
4630;SDS011;2328;48.170;11.602;2023-05-13T09:49:54;8.40;;;4.37;;
4630;SDS011;2328;48.170;11.602;2023-05-13T09:52:23;7.77;;;4.80;;
4630;SDS011;2328;48.170;11.602;2023-05-13T09:54:56;10.43;;;4.43;;
4630;SDS011;2328;48.170;11.602;2023-05-13T09:57:26;11.50;;;5.70;;
4630;SDS011;2328;48.170;11.602;2023-05-13T09:59:57;6.93;;;4.17;;
4630;SDS011;2328;48.170;11.602;2023-05-13T10:02:31;8.17;;;3.97;;
4630;SDS011;2328;48.170;11.602;2023-05-13T10:05:00;5.80;;;4.20;;
4630;SDS011;2328;48.170;11.602;2023-05-13T10:07:44;5.70;;;3.40;;
4630;SDS011;2328;48.170;11.602;2023-05-13T10:10:15;9.10;;;4.07;;
4630;SDS011;2328;48.170;11.602;2023-05-13T10:12:44;5.47;;;4.07;;
4630;SDS011;2328;48.170;11.602;2023-05-13T10:15:16;6.80;;;4.30;;
4630;SDS011;2328;48.170;11.602;2023-05-13T10:17:45;5.17;;;3.37;;
4630;SDS011;2328;48.170;11.602;2023-05-13T10:20:18;5.33;;;3.63;;
4630;SDS011;2328;48.170;11.602;2023-05-13T10:22:48;6.00;;;3.20;;
4630;SDS011;2328;48.170;11.602;2023-05-13T10:25:20;6.17;;;4.33;;
4630;SDS011;2328;48.170;11.602;2023-05-13T10:27:49;6.97;;;3.90;;
4630;SDS011;2328;48.170;11.602;2023-05-13T10:30:20;5.10;;;3.47;;
4630;SDS011;2328;48.170;11.602;2023-05-13T10:32:51;4.63;;;3.33;;
4630;SDS011;2328;48.170;11.602;2023-05-13T10:35:21;4.77;;;3.63;;
4630;SDS011;2328;48.170;11.602;2023-05-13T10:37:55;3.60;;;2.80;;
4630;SDS011;2328;48.170;11.602;2023-05-13T10:40:30;4.13;;;3.20;;
4630;SDS011;2328;48.170;11.602;2023-05-13T10:43:08;5.67;;;3.70;;
4630;SDS011;2328;48.170;11.602;2023-05-13T10:45:37;6.00;;;3.57;;
4630;SDS011;2328;48.170;11.602;2023-05-13T10:48:06;5.10;;;3.83;;
4630;SDS011;2328;48.170;11.602;2023-05-13T10:50:36;9.00;;;4.07;;
4630;SDS011;2328;48.170;11.602;2023-05-13T10:53:07;4.43;;;3.70;;
4630;SDS011;2328;48.170;11.602;2023-05-13T10:55:42;3.33;;;2.87;;
4630;SDS011;2328;48.170;11.602;2023-05-13T10:58:11;5.20;;;3.17;;
4630;SDS011;2328;48.170;11.602;2023-05-13T11:00:46;2.70;;;2.30;;
4630;SDS011;2328;48.170;11.602;2023-05-13T11:03:26;3.67;;;2.60;;
4630;SDS011;2328;48.170;11.602;2023-05-13T11:05:59;5.33;;;3.03;;
4630;SDS011;2328;48.170;11.602;2023-05-13T11:08:37;2.77;;;2.53;;
4630;SDS011;2328;48.170;11.602;2023-05-13T11:11:21;2.47;;;2.27;;
4630;SDS011;2328;48.170;11.602;2023-05-13T11:13:50;3.43;;;2.40;;
4630;SDS011;2328;48.170;11.602;2023-05-13T11:16:19;3.90;;;2.60;;
4630;SDS011;2328;48.170;11.602;2023-05-13T11:18:48;5.20;;;2.43;;
4630;SDS011;2328;48.170;11.602;2023-05-13T11:21:27;2.43;;;1.97;;
4630;SDS011;2328;48.170;11.602;2023-05-13T11:23:57;2.73;;;2.40;;
4630;SDS011;2328;48.170;11.602;2023-05-13T11:26:27;2.70;;;2.30;;
4630;SDS011;2328;48.170;11.602;2023-05-13T11:29:08;2.87;;;2.50;;
4630;SDS011;2328;48.170;11.602;2023-05-13T11:31:46;2.83;;;2.40;;
4630;SDS011;2328;48.170;11.602;2023-05-13T11:34:15;2.53;;;2.33;;
4630;SDS011;2328;48.170;11.602;2023-05-13T11:36:45;6.10;;;2.30;;
4630;SDS011;2328;48.170;11.602;2023-05-13T11:39:14;4.23;;;2.00;;
4630;SDS011;2328;48.170;11.602;2023-05-13T11:41:45;1.80;;;1.70;;
4630;SDS011;2328;48.170;11.602;2023-05-13T11:44:14;1.70;;;1.60;;
4630;SDS011;2328;48.170;11.602;2023-05-13T11:46:49;2.63;;;1.90;;
4630;SDS011;2328;48.170;11.602;2023-05-13T11:49:30;2.03;;;1.93;;
4630;SDS011;2328;48.170;11.602;2023-05-13T11:51:59;3.00;;;2.70;;
4630;SDS011;2328;48.170;11.602;2023-05-13T11:54:28;2.27;;;1.90;;
4630;SDS011;2328;48.170;11.602;2023-05-13T11:56:58;2.20;;;2.00;;
4630;SDS011;2328;48.170;11.602;2023-05-13T11:59:27;1.97;;;1.70;;
4630;SDS011;2328;48.170;11.602;2023-05-13T12:02:10;2.00;;;1.87;;
4630;SDS011;2328;48.170;11.602;2023-05-13T12:04:51;2.97;;;2.40;;
4630;SDS011;2328;48.170;11.602;2023-05-13T12:07:47;1.90;;;1.80;;
4630;SDS011;2328;48.170;11.602;2023-05-13T12:10:16;2.03;;;1.93;;
4630;SDS011;2328;48.170;11.602;2023-05-13T12:12:46;2.53;;;2.33;;
4630;SDS011;2328;48.170;11.602;2023-05-13T12:15:15;2.03;;;1.83;;
4630;SDS011;2328;48.170;11.602;2023-05-13T12:17:50;2.10;;;1.97;;
4630;SDS011;2328;48.170;11.602;2023-05-13T12:20:36;2.40;;;2.20;;
4630;SDS011;2328;48.170;11.602;2023-05-13T12:23:13;1.77;;;1.67;;
4630;SDS011;2328;48.170;11.602;2023-05-13T12:25:42;2.80;;;2.03;;
4630;SDS011;2328;48.170;11.602;2023-05-13T12:31:17;2.37;;;2.20;;
4630;SDS011;2328;48.170;11.602;2023-05-13T12:34:01;2.20;;;2.03;;
4630;SDS011;2328;48.170;11.602;2023-05-13T12:36:37;1.80;;;1.70;;
4630;SDS011;2328;48.170;11.602;2023-05-13T12:39:09;1.63;;;1.53;;
4630;SDS011;2328;48.170;11.602;2023-05-13T12:41:40;1.77;;;1.57;;
4630;SDS011;2328;48.170;11.602;2023-05-13T12:44:14;2.20;;;1.63;;
4630;SDS011;2328;48.170;11.602;2023-05-13T12:46:54;2.57;;;2.37;;
4630;SDS011;2328;48.170;11.602;2023-05-13T12:49:32;1.87;;;1.60;;
4630;SDS011;2328;48.170;11.602;2023-05-13T12:55:08;3.17;;;1.87;;
4630;SDS011;2328;48.170;11.602;2023-05-13T12:57:40;3.03;;;2.47;;
4630;SDS011;2328;48.170;11.602;2023-05-13T13:00:25;3.13;;;2.13;;
4630;SDS011;2328;48.170;11.602;2023-05-13T13:03:04;4.40;;;2.90;;
4630;SDS011;2328;48.170;11.602;2023-05-13T13:05:52;1.83;;;1.73;;
4630;SDS011;2328;48.170;11.602;2023-05-13T13:08:24;2.50;;;2.13;;
4630;SDS011;2328;48.170;11.602;2023-05-13T13:11:03;2.57;;;2.37;;
4630;SDS011;2328;48.170;11.602;2023-05-13T13:14:05;2.60;;;2.30;;
4630;SDS011;2328;48.170;11.602;2023-05-13T13:16:43;3.03;;;2.83;;
4630;SDS011;2328;48.170;11.602;2023-05-13T13:22:54;2.60;;;2.40;;
4630;SDS011;2328;48.170;11.602;2023-05-13T13:25:40;2.00;;;1.80;;
4630;SDS011;2328;48.170;11.602;2023-05-13T13:28:08;1.93;;;1.50;;
4630;SDS011;2328;48.170;11.602;2023-05-13T13:30:36;1.93;;;1.83;;
4630;SDS011;2328;48.170;11.602;2023-05-13T13:33:12;2.13;;;1.97;;
4630;SDS011;2328;48.170;11.602;2023-05-13T13:35:41;3.77;;;2.63;;
4630;SDS011;2328;48.170;11.602;2023-05-13T13:38:11;5.80;;;2.13;;
4630;SDS011;2328;48.170;11.602;2023-05-13T13:40:46;4.70;;;2.90;;
4630;SDS011;2328;48.170;11.602;2023-05-13T13:43:15;2.70;;;2.20;;
4630;SDS011;2328;48.170;11.602;2023-05-13T13:45:44;2.37;;;2.17;;
4630;SDS011;2328;48.170;11.602;2023-05-13T13:48:13;2.70;;;2.30;;
4630;SDS011;2328;48.170;11.602;2023-05-13T13:54:21;2.10;;;1.90;;
4630;SDS011;2328;48.170;11.602;2023-05-13T13:57:00;2.10;;;2.00;;
4630;SDS011;2328;48.170;11.602;2023-05-13T13:59:36;1.70;;;1.60;;
4630;SDS011;2328;48.170;11.602;2023-05-13T14:02:08;1.80;;;1.70;;
4630;SDS011;2328;48.170;11.602;2023-05-13T14:04:58;2.20;;;2.00;;
4630;SDS011;2328;48.170;11.602;2023-05-13T14:07:49;2.60;;;2.10;;
4630;SDS011;2328;48.170;11.602;2023-05-13T14:13:36;1.63;;;1.43;;
4630;SDS011;2328;48.170;11.602;2023-05-13T14:16:34;1.97;;;1.77;;
4630;SDS011;2328;48.170;11.602;2023-05-13T14:19:40;1.93;;;1.83;;
4630;SDS011;2328;48.170;11.602;2023-05-13T14:33:11;1.87;;;1.77;;
4630;SDS011;2328;48.170;11.602;2023-05-13T14:35:43;6.83;;;2.57;;
4630;SDS011;2328;48.170;11.602;2023-05-13T14:42:01;2.10;;;1.73;;
4630;SDS011;2328;48.170;11.602;2023-05-13T14:45:00;1.50;;;1.40;;
4630;SDS011;2328;48.170;11.602;2023-05-13T14:47:28;2.10;;;1.60;;
4630;SDS011;2328;48.170;11.602;2023-05-13T14:49:59;2.10;;;1.57;;
4630;SDS011;2328;48.170;11.602;2023-05-13T14:52:27;1.47;;;1.37;;
4630;SDS011;2328;48.170;11.602;2023-05-13T14:54:57;1.53;;;1.43;;
4630;SDS011;2328;48.170;11.602;2023-05-13T14:57:26;1.83;;;1.57;;
4630;SDS011;2328;48.170;11.602;2023-05-13T14:59:56;1.30;;;1.20;;
4630;SDS011;2328;48.170;11.602;2023-05-13T15:19:39;1.93;;;1.73;;
4630;SDS011;2328;48.170;11.602;2023-05-13T15:25:23;2.17;;;1.83;;
4630;SDS011;2328;48.170;11.602;2023-05-13T15:27:54;1.70;;;1.60;;
4630;SDS011;2328;48.170;11.602;2023-05-13T15:30:24;1.80;;;1.67;;
4630;SDS011;2328;48.170;11.602;2023-05-13T15:35:58;2.13;;;2.03;;
4630;SDS011;2328;48.170;11.602;2023-05-13T15:38:39;2.80;;;2.10;;
4630;SDS011;2328;48.170;11.602;2023-05-13T15:41:20;2.03;;;1.80;;
4630;SDS011;2328;48.170;11.602;2023-05-13T15:43:59;1.97;;;1.77;;
4630;SDS011;2328;48.170;11.602;2023-05-13T15:49:55;2.60;;;2.40;;
4630;SDS011;2328;48.170;11.602;2023-05-13T15:52:45;2.40;;;2.20;;
4630;SDS011;2328;48.170;11.602;2023-05-13T15:55:28;1.63;;;1.50;;
4630;SDS011;2328;48.170;11.602;2023-05-13T15:58:33;2.13;;;1.93;;
4630;SDS011;2328;48.170;11.602;2023-05-13T16:01:34;1.40;;;1.30;;
4630;SDS011;2328;48.170;11.602;2023-05-13T16:05:04;1.80;;;1.70;;
4630;SDS011;2328;48.170;11.602;2023-05-13T16:07:52;1.50;;;1.37;;
4630;SDS011;2328;48.170;11.602;2023-05-13T16:10:35;1.60;;;1.50;;
4630;SDS011;2328;48.170;11.602;2023-05-13T16:13:18;2.70;;;1.47;;
4630;SDS011;2328;48.170;11.602;2023-05-13T16:15:52;1.70;;;1.60;;
4630;SDS011;2328;48.170;11.602;2023-05-13T16:18:21;2.47;;;1.87;;
4630;SDS011;2328;48.170;11.602;2023-05-13T16:20:56;1.30;;;1.13;;
4630;SDS011;2328;48.170;11.602;2023-05-13T16:32:37;1.57;;;1.47;;
4630;SDS011;2328;48.170;11.602;2023-05-13T16:36:33;1.90;;;1.80;;